sensor_id;sensor_type;location;lat;lon;timestamp;pressure;altitude;pressure_sealevel;temperature;humidity
18749;BME280;9503;53.560;10.246;2023-09-08T00:02:02;101497.25;;;24.84;60.14
18749;BME280;9503;53.560;10.246;2023-09-08T00:04:28;101499.78;;;24.56;60.97
18749;BME280;9503;53.560;10.246;2023-09-08T00:06:55;101499.72;;;24.36;61.21
18749;BME280;9503;53.560;10.246;2023-09-08T00:09:21;101497.22;;;24.71;60.64
18749;BME280;9503;53.560;10.246;2023-09-08T00:11:48;101501.59;;;24.71;60.63
18749;BME280;9503;53.560;10.246;2023-09-08T00:14:15;101496.34;;;24.72;60.17
18749;BME280;9503;53.560;10.246;2023-09-08T00:16:41;101499.78;;;24.59;60.74
18749;BME280;9503;53.560;10.246;2023-09-08T00:19:10;101493.75;;;24.85;59.92
18749;BME280;9503;53.560;10.246;2023-09-08T00:21:37;101500.69;;;24.75;60.35
18749;BME280;9503;53.560;10.246;2023-09-08T00:24:04;101491.94;;;24.55;60.64
18749;BME280;9503;53.560;10.246;2023-09-08T00:26:32;101496.25;;;24.42;61.39
18749;BME280;9503;53.560;10.246;2023-09-08T00:28:59;101498.97;;;24.69;60.32
18749;BME280;9503;53.560;10.246;2023-09-08T00:31:26;101495.44;;;24.53;60.85
18749;BME280;9503;53.560;10.246;2023-09-08T00:33:52;101490.03;;;24.29;61.37
18749;BME280;9503;53.560;10.246;2023-09-08T00:36:20;101490.84;;;24.11;61.96
18749;BME280;9503;53.560;10.246;2023-09-08T00:38:47;101488.22;;;24.14;62.30
18749;BME280;9503;53.560;10.246;2023-09-08T00:41:14;101488.03;;;23.78;63.08
18749;BME280;9503;53.560;10.246;2023-09-08T00:43:40;101481.91;;;23.73;63.10
18749;BME280;9503;53.560;10.246;2023-09-08T00:46:07;101478.91;;;23.22;64.39
18749;BME280;9503;53.560;10.246;2023-09-08T00:48:35;101479.72;;;23.18;64.77
18749;BME280;9503;53.560;10.246;2023-09-08T00:51:03;101477.03;;;23.12;65.30
18749;BME280;9503;53.560;10.246;2023-09-08T00:53:32;101482.06;;;22.86;66.02
18749;BME280;9503;53.560;10.246;2023-09-08T00:55:59;101476.06;;;22.99;65.50
18749;BME280;9503;53.560;10.246;2023-09-08T00:58:25;101477.91;;;23.09;65.35
18749;BME280;9503;53.560;10.246;2023-09-08T01:00:52;101469.00;;;22.91;65.92
18749;BME280;9503;53.560;10.246;2023-09-08T01:03:19;101466.63;;;23.15;65.55
18749;BME280;9503;53.560;10.246;2023-09-08T01:05:46;101466.38;;;22.91;66.05
18749;BME280;9503;53.560;10.246;2023-09-08T01:08:14;101454.78;;;22.67;66.96
18749;BME280;9503;53.560;10.246;2023-09-08T01:10:42;101462.22;;;23.12;65.60
18749;BME280;9503;53.560;10.246;2023-09-08T01:13:09;101456.13;;;23.13;65.46
18749;BME280;9503;53.560;10.246;2023-09-08T01:15:36;101461.91;;;22.82;66.41
18749;BME280;9503;53.560;10.246;2023-09-08T01:18:03;101464.69;;;22.96;65.91
18749;BME280;9503;53.560;10.246;2023-09-08T01:20:35;101456.78;;;22.86;66.51
18749;BME280;9503;53.560;10.246;2023-09-08T01:23:17;101446.09;;;22.68;66.80
18749;BME280;9503;53.560;10.246;2023-09-08T01:25:49;101452.16;;;22.64;66.59
18749;BME280;9503;53.560;10.246;2023-09-08T01:28:18;101446.06;;;22.67;66.81
18749;BME280;9503;53.560;10.246;2023-09-08T01:30:47;101451.28;;;22.64;67.00
18749;BME280;9503;53.560;10.246;2023-09-08T01:33:15;101450.41;;;22.65;66.72
18749;BME280;9503;53.560;10.246;2023-09-08T01:35:42;101448.13;;;22.94;66.28
18749;BME280;9503;53.560;10.246;2023-09-08T01:38:09;101448.69;;;22.67;66.80
18749;BME280;9503;53.560;10.246;2023-09-08T01:40:35;101441.09;;;22.86;66.20
18749;BME280;9503;53.560;10.246;2023-09-08T01:43:04;101446.28;;;22.85;66.26
18749;BME280;9503;53.560;10.246;2023-09-08T01:45:31;101440.91;;;22.73;66.69
18749;BME280;9503;53.560;10.246;2023-09-08T01:47:58;101438.88;;;22.47;67.26
18749;BME280;9503;53.560;10.246;2023-09-08T01:50:24;101440.84;;;22.64;67.13
18749;BME280;9503;53.560;10.246;2023-09-08T01:52:51;101438.81;;;22.38;67.54
18749;BME280;9503;53.560;10.246;2023-09-08T01:55:17;101434.88;;;22.77;66.66
18749;BME280;9503;53.560;10.246;2023-09-08T01:57:45;101430.06;;;22.36;67.50
18749;BME280;9503;53.560;10.246;2023-09-08T02:00:14;101437.28;;;22.58;67.20
18749;BME280;9503;53.560;10.246;2023-09-08T02:02:41;101439.19;;;22.76;66.44
18749;BME280;9503;53.560;10.246;2023-09-08T02:05:08;101434.44;;;22.39;67.54
18749;BME280;9503;53.560;10.246;2023-09-08T02:07:35;101423.81;;;22.23;68.25
18749;BME280;9503;53.560;10.246;2023-09-08T02:10:01;101428.34;;;22.37;67.74
18749;BME280;9503;53.560;10.246;2023-09-08T02:12:28;101429.94;;;22.25;68.05
18749;BME280;9503;53.560;10.246;2023-09-08T02:14:54;101422.75;;;22.07;68.67
18749;BME280;9503;53.560;10.246;2023-09-08T02:17:23;101421.13;;;22.16;68.67
18749;BME280;9503;53.560;10.246;2023-09-08T02:19:49;101426.09;;;21.97;69.12
18749;BME280;9503;53.560;10.246;2023-09-08T02:22:16;101428.66;;;21.93;69.44
18749;BME280;9503;53.560;10.246;2023-09-08T02:24:43;101430.28;;;21.85;69.78
18749;BME280;9503;53.560;10.246;2023-09-08T02:27:10;101428.63;;;21.91;69.79
18749;BME280;9503;53.560;10.246;2023-09-08T02:29:36;101426.53;;;22.32;68.48
18749;BME280;9503;53.560;10.246;2023-09-08T02:32:03;101427.38;;;22.30;68.24
18749;BME280;9503;53.560;10.246;2023-09-08T02:34:34;101429.19;;;22.34;68.33
18749;BME280;9503;53.560;10.246;2023-09-08T02:37:02;101421.91;;;22.10;68.38
18749;BME280;9503;53.560;10.246;2023-09-08T02:39:28;101428.63;;;21.91;69.50
18749;BME280;9503;53.560;10.246;2023-09-08T02:41:55;101417.72;;;21.59;70.81
18749;BME280;9503;53.560;10.246;2023-09-08T02:44:21;101418.47;;;21.47;71.14
18749;BME280;9503;53.560;10.246;2023-09-08T02:46:48;101423.44;;;21.32;71.63
18749;BME280;9503;53.560;10.246;2023-09-08T02:49:15;101412.13;;;21.30;72.00
18749;BME280;9503;53.560;10.246;2023-09-08T02:51:43;101425.34;;;21.44;71.40
18749;BME280;9503;53.560;10.246;2023-09-08T02:54:09;101426.00;;;21.29;71.71
18749;BME280;9503;53.560;10.246;2023-09-08T02:56:36;101418.97;;;21.27;72.10
18749;BME280;9503;53.560;10.246;2023-09-08T02:59:02;101420.81;;;21.93;70.05
18749;BME280;9503;53.560;10.246;2023-09-08T03:01:29;101419.94;;;21.94;69.55
18749;BME280;9503;53.560;10.246;2023-09-08T03:03:56;101420.06;;;22.03;69.13
18749;BME280;9503;53.560;10.246;2023-09-08T03:06:22;101420.03;;;21.98;69.59
18749;BME280;9503;53.560;10.246;2023-09-08T03:08:50;101417.91;;;21.70;70.46
18749;BME280;9503;53.560;10.246;2023-09-08T03:11:17;101421.75;;;21.96;69.46
18749;BME280;9503;53.560;10.246;2023-09-08T03:13:43;101414.47;;;21.74;70.26
18749;BME280;9503;53.560;10.246;2023-09-08T03:16:10;101421.47;;;21.75;70.51
18749;BME280;9503;53.560;10.246;2023-09-08T03:18:37;101411.91;;;21.78;70.13
18749;BME280;9503;53.560;10.246;2023-09-08T03:21:04;101412.09;;;21.91;69.88
18749;BME280;9503;53.560;10.246;2023-09-08T03:23:35;101412.13;;;21.95;69.73
18749;BME280;9503;53.560;10.246;2023-09-08T03:26:03;101414.66;;;21.88;69.56
18749;BME280;9503;53.560;10.246;2023-09-08T03:28:30;101410.53;;;22.06;69.17
18749;BME280;9503;53.560;10.246;2023-09-08T03:30:57;101401.69;;;21.95;69.34
18749;BME280;9503;53.560;10.246;2023-09-08T03:33:24;101411.31;;;21.98;69.56
18749;BME280;9503;53.560;10.246;2023-09-08T03:35:50;101409.66;;;22.04;69.47
18749;BME280;9503;53.560;10.246;2023-09-08T03:38:17;101409.97;;;22.32;68.13
18749;BME280;9503;53.560;10.246;2023-09-08T03:40:44;101406.41;;;22.22;68.42
18749;BME280;9503;53.560;10.246;2023-09-08T03:43:12;101404.75;;;22.29;68.53
18749;BME280;9503;53.560;10.246;2023-09-08T03:45:39;101410.84;;;22.31;68.42
18749;BME280;9503;53.560;10.246;2023-09-08T03:48:06;101411.94;;;21.80;70.15
18749;BME280;9503;53.560;10.246;2023-09-08T03:50:33;101401.72;;;21.97;69.61
18749;BME280;9503;53.560;10.246;2023-09-08T03:53:00;101401.06;;;22.12;69.19
18749;BME280;9503;53.560;10.246;2023-09-08T03:55:27;101397.53;;;22.10;69.69
18749;BME280;9503;53.560;10.246;2023-09-08T03:57:53;101395.63;;;21.96;69.96
18749;BME280;9503;53.560;10.246;2023-09-08T04:00:21;101392.25;;;22.06;69.59
18749;BME280;9503;53.560;10.246;2023-09-08T04:02:48;101387.66;;;21.87;70.30
18749;BME280;9503;53.560;10.246;2023-09-08T04:05:16;101386.44;;;22.29;68.81
18749;BME280;9503;53.560;10.246;2023-09-08T04:07:43;101388.00;;;22.12;69.39
18749;BME280;9503;53.560;10.246;2023-09-08T04:10:10;101388.97;;;22.20;69.29
18749;BME280;9503;53.560;10.246;2023-09-08T04:12:38;101389.38;;;21.85;69.99
18749;BME280;9503;53.560;10.246;2023-09-08T04:15:06;101389.84;;;22.19;69.05
18749;BME280;9503;53.560;10.246;2023-09-08T04:17:34;101392.00;;;21.87;70.18
18749;BME280;9503;53.560;10.246;2023-09-08T04:20:01;101393.03;;;21.98;69.67
18749;BME280;9503;53.560;10.246;2023-09-08T04:22:30;101390.72;;;22.21;68.93
18749;BME280;9503;53.560;10.246;2023-09-08T04:24:56;101390.50;;;22.05;69.67
18749;BME280;9503;53.560;10.246;2023-09-08T04:27:23;101383.47;;;22.00;69.19
18749;BME280;9503;53.560;10.246;2023-09-08T04:29:49;101390.75;;;22.25;68.79
18749;BME280;9503;53.560;10.246;2023-09-08T04:32:16;101391.13;;;22.60;67.84
18749;BME280;9503;53.560;10.246;2023-09-08T04:34:44;101392.75;;;22.48;68.13
18749;BME280;9503;53.560;10.246;2023-09-08T04:37:11;101389.38;;;22.59;67.45
18749;BME280;9503;53.560;10.246;2023-09-08T04:39:37;101389.84;;;22.19;68.62
18749;BME280;9503;53.560;10.246;2023-09-08T04:42:04;101389.13;;;22.35;68.50
18749;BME280;9503;53.560;10.246;2023-09-08T04:44:31;101388.13;;;22.25;68.64
18749;BME280;9503;53.560;10.246;2023-09-08T04:46:58;101378.53;;;22.21;68.95
18749;BME280;9503;53.560;10.246;2023-09-08T04:49:24;101376.34;;;21.87;69.83
18749;BME280;9503;53.560;10.246;2023-09-08T04:51:53;101381.00;;;22.11;69.22
18749;BME280;9503;53.560;10.246;2023-09-08T04:54:19;101373.63;;;21.77;70.56
18749;BME280;9503;53.560;10.246;2023-09-08T04:56:47;101372.94;;;21.91;70.47
18749;BME280;9503;53.560;10.246;2023-09-08T04:59:14;101371.47;;;22.14;69.83
18749;BME280;9503;53.560;10.246;2023-09-08T05:01:40;101364.25;;;21.93;69.85
18749;BME280;9503;53.560;10.246;2023-09-08T05:04:09;101367.13;;;22.13;69.47
18749;BME280;9503;53.560;10.246;2023-09-08T05:06:35;101375.28;;;22.44;68.70
18749;BME280;9503;53.560;10.246;2023-09-08T05:09:05;101375.53;;;22.71;67.37
18749;BME280;9503;53.560;10.246;2023-09-08T05:11:32;101368.94;;;22.19;68.84
18749;BME280;9503;53.560;10.246;2023-09-08T05:16:25;101369.03;;;22.28;69.27
18749;BME280;9503;53.560;10.246;2023-09-08T05:19:02;101377.91;;;22.45;69.12
18749;BME280;9503;53.560;10.246;2023-09-08T05:21:29;101376.50;;;22.82;67.23
18749;BME280;9503;53.560;10.246;2023-09-08T05:23:55;101375.00;;;23.07;66.67
18749;BME280;9503;53.560;10.246;2023-09-08T05:26:23;101371.41;;;22.93;66.96
18749;BME280;9503;53.560;10.246;2023-09-08T05:28:50;101370.75;;;23.25;66.79
18749;BME280;9503;53.560;10.246;2023-09-08T05:31:17;101364.09;;;23.83;64.54
18749;BME280;9503;53.560;10.246;2023-09-08T05:33:43;101358.16;;;24.53;62.71
18749;BME280;9503;53.560;10.246;2023-09-08T05:36:10;101361.69;;;25.13;60.04
18749;BME280;9503;53.560;10.246;2023-09-08T05:38:36;101366.03;;;24.33;62.09
18749;BME280;9503;53.560;10.246;2023-09-08T05:41:03;101362.47;;;24.30;62.09
18749;BME280;9503;53.560;10.246;2023-09-08T05:43:31;101362.28;;;23.71;64.11
18749;BME280;9503;53.560;10.246;2023-09-08T05:45:57;101361.53;;;24.00;63.68
18749;BME280;9503;53.560;10.246;2023-09-08T05:48:24;101355.28;;;23.63;64.44
18749;BME280;9503;53.560;10.246;2023-09-08T05:50:51;101352.38;;;23.20;65.92
18749;BME280;9503;53.560;10.246;2023-09-08T05:53:17;101352.69;;;23.70;64.69
18749;BME280;9503;53.560;10.246;2023-09-08T05:55:44;101360.41;;;23.49;66.01
18749;BME280;9503;53.560;10.246;2023-09-08T05:58:10;101351.19;;;24.58;62.93
18749;BME280;9503;53.560;10.246;2023-09-08T06:00:39;101356.44;;;24.61;62.58
18749;BME280;9503;53.560;10.246;2023-09-08T06:03:06;101351.06;;;24.08;63.41
18749;BME280;9503;53.560;10.246;2023-09-08T06:05:33;101354.53;;;24.01;64.31
18749;BME280;9503;53.560;10.246;2023-09-08T06:07:59;101357.25;;;24.26;64.00
18749;BME280;9503;53.560;10.246;2023-09-08T06:10:26;101357.31;;;24.91;62.11
18749;BME280;9503;53.560;10.246;2023-09-08T06:12:52;101360.78;;;25.02;60.99
18749;BME280;9503;53.560;10.246;2023-09-08T06:15:19;101364.28;;;24.34;63.37
18749;BME280;9503;53.560;10.246;2023-09-08T06:17:47;101359.88;;;25.40;61.19
18749;BME280;9503;53.560;10.246;2023-09-08T06:20:14;101365.81;;;26.01;59.47
18749;BME280;9503;53.560;10.246;2023-09-08T06:22:41;101375.34;;;27.31;56.52
18749;BME280;9503;53.560;10.246;2023-09-08T06:25:08;101374.41;;;27.40;56.20
18749;BME280;9503;53.560;10.246;2023-09-08T06:27:35;101374.84;;;28.45;53.63
18749;BME280;9503;53.560;10.246;2023-09-08T06:30:02;101381.00;;;28.44;54.05
18749;BME280;9503;53.560;10.246;2023-09-08T06:32:29;101376.00;;;27.53;55.61
18749;BME280;9503;53.560;10.246;2023-09-08T06:34:57;101373.19;;;26.78;57.18
18749;BME280;9503;53.560;10.246;2023-09-08T06:37:24;101371.78;;;26.26;58.64
18749;BME280;9503;53.560;10.246;2023-09-08T06:39:50;101371.91;;;26.05;59.56
18749;BME280;9503;53.560;10.246;2023-09-08T06:42:17;101381.41;;;26.32;59.13
18749;BME280;9503;53.560;10.246;2023-09-08T06:44:44;101364.19;;;25.74;60.06
18749;BME280;9503;53.560;10.246;2023-09-08T06:47:10;101375.56;;;25.64;60.98
18749;BME280;9503;53.560;10.246;2023-09-08T06:49:37;101374.69;;;25.67;60.78
18749;BME280;9503;53.560;10.246;2023-09-08T06:52:05;101371.19;;;25.66;60.92
18749;BME280;9503;53.560;10.246;2023-09-08T06:54:32;101366.00;;;25.39;61.95
18749;BME280;9503;53.560;10.246;2023-09-08T06:56:59;101366.94;;;24.83;62.82
18749;BME280;9503;53.560;10.246;2023-09-08T06:59:25;101372.13;;;25.45;61.86
18749;BME280;9503;53.560;10.246;2023-09-08T07:01:52;101380.47;;;26.36;59.88
18749;BME280;9503;53.560;10.246;2023-09-08T07:04:19;101380.31;;;26.68;59.21
18749;BME280;9503;53.560;10.246;2023-09-08T07:06:45;101378.47;;;26.76;58.48
18749;BME280;9503;53.560;10.246;2023-09-08T07:09:13;101374.44;;;26.20;59.56
18749;BME280;9503;53.560;10.246;2023-09-08T07:11:40;101375.81;;;26.82;58.72
18749;BME280;9503;53.560;10.246;2023-09-08T07:14:07;101379.47;;;26.58;59.67
18749;BME280;9503;53.560;10.246;2023-09-08T07:16:34;101375.63;;;27.04;58.68
18749;BME280;9503;53.560;10.246;2023-09-08T07:19:01;101382.53;;;27.17;58.41
18749;BME280;9503;53.560;10.246;2023-09-08T07:21:28;101375.88;;;27.64;57.33
18749;BME280;9503;53.560;10.246;2023-09-08T07:23:54;101383.00;;;27.56;57.68
18749;BME280;9503;53.560;10.246;2023-09-08T07:26:22;101384.69;;;27.63;57.27
18749;BME280;9503;53.560;10.246;2023-09-08T07:28:49;101381.00;;;27.76;57.18
18749;BME280;9503;53.560;10.246;2023-09-08T07:31:15;101375.41;;;27.28;57.91
18749;BME280;9503;53.560;10.246;2023-09-08T07:33:42;101387.91;;;27.03;58.93
18749;BME280;9503;53.560;10.246;2023-09-08T07:36:09;101388.06;;;26.83;59.73
18749;BME280;9503;53.560;10.246;2023-09-08T07:38:35;101387.25;;;26.77;59.57
18749;BME280;9503;53.560;10.246;2023-09-08T07:41:01;101377.31;;;27.14;59.38
18749;BME280;9503;53.560;10.246;2023-09-08T07:43:29;101379.97;;;27.09;59.13
18749;BME280;9503;53.560;10.246;2023-09-08T07:45:56;101376.25;;;27.30;58.96
18749;BME280;9503;53.560;10.246;2023-09-08T07:48:23;101376.16;;;27.38;58.53
18749;BME280;9503;53.560;10.246;2023-09-08T07:50:49;101373.97;;;27.79;58.50
18749;BME280;9503;53.560;10.246;2023-09-08T07:53:16;101380.81;;;27.94;58.45
18749;BME280;9503;53.560;10.246;2023-09-08T07:55:42;101377.38;;;27.86;57.43
18749;BME280;9503;53.560;10.246;2023-09-08T07:58:09;101375.22;;;28.16;57.55
18749;BME280;9503;53.560;10.246;2023-09-08T08:00:37;101374.06;;;27.72;58.53
18749;BME280;9503;53.560;10.246;2023-09-08T08:03:04;101368.75;;;27.73;58.32
18749;BME280;9503;53.560;10.246;2023-09-08T08:05:31;101369.22;;;28.06;57.21
18749;BME280;9503;53.560;10.246;2023-09-08T08:07:58;101364.97;;;28.56;56.47
18749;BME280;9503;53.560;10.246;2023-09-08T08:10:25;101363.38;;;27.84;57.46
18749;BME280;9503;53.560;10.246;2023-09-08T08:12:51;101362.19;;;28.05;57.34
18749;BME280;9503;53.560;10.246;2023-09-08T08:15:19;101359.03;;;28.42;56.58
18749;BME280;9503;53.560;10.246;2023-09-08T08:17:47;101362.31;;;28.59;55.77
18749;BME280;9503;53.560;10.246;2023-09-08T08:20:13;101361.50;;;27.91;57.76
18749;BME280;9503;53.560;10.246;2023-09-08T08:22:43;101348.66;;;28.85;55.48
18749;BME280;9503;53.560;10.246;2023-09-08T08:25:11;101361.50;;;29.06;56.10
18749;BME280;9503;53.560;10.246;2023-09-08T08:27:39;101360.69;;;29.92;53.44
18749;BME280;9503;53.560;10.246;2023-09-08T08:30:07;101359.75;;;30.72;52.61
18749;BME280;9503;53.560;10.246;2023-09-08T08:32:34;101357.28;;;30.99;51.49
18749;BME280;9503;53.560;10.246;2023-09-08T08:35:02;101360.78;;;29.88;52.84
18749;BME280;9503;53.560;10.246;2023-09-08T08:37:29;101363.81;;;28.74;55.51
18749;BME280;9503;53.560;10.246;2023-09-08T08:39:56;101363.34;;;29.49;55.11
18749;BME280;9503;53.560;10.246;2023-09-08T08:42:23;101364.28;;;29.47;55.07
18749;BME280;9503;53.560;10.246;2023-09-08T08:44:49;101365.94;;;29.94;53.47
18749;BME280;9503;53.560;10.246;2023-09-08T08:47:16;101367.94;;;29.38;54.08
18749;BME280;9503;53.560;10.246;2023-09-08T08:49:44;101368.66;;;29.48;54.73
18749;BME280;9503;53.560;10.246;2023-09-08T08:52:14;101367.50;;;29.14;55.24
18749;BME280;9503;53.560;10.246;2023-09-08T08:54:41;101366.78;;;29.96;53.86
18749;BME280;9503;53.560;10.246;2023-09-08T08:57:11;101371.59;;;30.19;53.21
18749;BME280;9503;53.560;10.246;2023-09-08T08:59:38;101366.16;;;30.25;52.03
18749;BME280;9503;53.560;10.246;2023-09-08T09:02:08;101368.22;;;30.12;52.76
18749;BME280;9503;53.560;10.246;2023-09-08T09:04:37;101369.84;;;30.19;52.28
18749;BME280;9503;53.560;10.246;2023-09-08T09:07:05;101363.03;;;30.45;52.32
18749;BME280;9503;53.560;10.246;2023-09-08T09:09:34;101362.22;;;30.03;53.41
18749;BME280;9503;53.560;10.246;2023-09-08T09:12:00;101360.94;;;29.80;53.02
18749;BME280;9503;53.560;10.246;2023-09-08T09:14:31;101362.34;;;29.98;52.83
18749;BME280;9503;53.560;10.246;2023-09-08T09:16:58;101363.47;;;30.64;51.61
18749;BME280;9503;53.560;10.246;2023-09-08T09:19:25;101361.41;;;30.76;51.61
18749;BME280;9503;53.560;10.246;2023-09-08T09:21:53;101362.00;;;31.20;51.28
18749;BME280;9503;53.560;10.246;2023-09-08T09:24:29;101357.16;;;31.38;50.88
18749;BME280;9503;53.560;10.246;2023-09-08T09:26:57;101355.53;;;31.63;50.31
18749;BME280;9503;53.560;10.246;2023-09-08T09:29:24;101354.03;;;31.54;50.56
18749;BME280;9503;53.560;10.246;2023-09-08T09:31:51;101350.66;;;31.80;50.10
18749;BME280;9503;53.560;10.246;2023-09-08T09:34:19;101350.41;;;31.88;49.19
18749;BME280;9503;53.560;10.246;2023-09-08T09:36:47;101351.66;;;32.34;49.09
18749;BME280;9503;53.560;10.246;2023-09-08T09:39:16;101341.06;;;31.11;51.24
18749;BME280;9503;53.560;10.246;2023-09-08T09:41:44;101351.28;;;32.16;49.31
18749;BME280;9503;53.560;10.246;2023-09-08T09:44:12;101359.78;;;32.56;48.35
18749;BME280;9503;53.560;10.246;2023-09-08T09:46:43;101350.53;;;32.94;48.24
18749;BME280;9503;53.560;10.246;2023-09-08T09:49:10;101353.63;;;33.07;47.28
18749;BME280;9503;53.560;10.246;2023-09-08T09:51:40;101344.94;;;33.02;47.77
18749;BME280;9503;53.560;10.246;2023-09-08T09:54:08;101341.38;;;33.03;46.79
18749;BME280;9503;53.560;10.246;2023-09-08T09:56:37;101340.78;;;33.44;46.78
18749;BME280;9503;53.560;10.246;2023-09-08T09:59:04;101345.41;;;33.86;46.20
18749;BME280;9503;53.560;10.246;2023-09-08T10:01:33;101339.44;;;34.03;46.82
18749;BME280;9503;53.560;10.246;2023-09-08T10:04:00;101340.28;;;34.25;46.18
18749;BME280;9503;53.560;10.246;2023-09-08T10:06:30;101329.66;;;33.57;46.97
18749;BME280;9503;53.560;10.246;2023-09-08T10:08:59;101326.69;;;34.75;45.11
18749;BME280;9503;53.560;10.246;2023-09-08T10:11:28;101322.66;;;34.65;44.87
18749;BME280;9503;53.560;10.246;2023-09-08T10:13:58;101331.81;;;35.60;44.71
18749;BME280;9503;53.560;10.246;2023-09-08T10:16:26;101331.47;;;34.47;45.74
18749;BME280;9503;53.560;10.246;2023-09-08T10:18:57;101327.34;;;34.38;45.45
18749;BME280;9503;53.560;10.246;2023-09-08T10:21:26;101321.97;;;34.82;45.23
18749;BME280;9503;53.560;10.246;2023-09-08T10:23:59;101327.53;;;34.33;45.65
18749;BME280;9503;53.560;10.246;2023-09-08T10:26:27;101323.41;;;34.48;45.82
18749;BME280;9503;53.560;10.246;2023-09-08T10:28:54;101315.47;;;35.28;45.27
18749;BME280;9503;53.560;10.246;2023-09-08T10:31:23;101320.59;;;34.51;46.50
18749;BME280;9503;53.560;10.246;2023-09-08T10:33:52;101313.56;;;35.11;45.31
18749;BME280;9503;53.560;10.246;2023-09-08T10:36:20;101312.97;;;35.82;44.11
18749;BME280;9503;53.560;10.246;2023-09-08T10:38:47;101315.09;;;35.94;43.99
18749;BME280;9503;53.560;10.246;2023-09-08T10:41:28;101316.09;;;36.28;43.19
18749;BME280;9503;53.560;10.246;2023-09-08T10:44:01;101313.50;;;36.62;42.29
18749;BME280;9503;53.560;10.246;2023-09-08T10:46:31;101316.25;;;37.28;42.07
18749;BME280;9503;53.560;10.246;2023-09-08T10:49:02;101314.16;;;37.51;41.50
18749;BME280;9503;53.560;10.246;2023-09-08T10:51:31;101318.44;;;37.04;41.67
18749;BME280;9503;53.560;10.246;2023-09-08T10:53:58;101311.22;;;37.40;41.39
18749;BME280;9503;53.560;10.246;2023-09-08T10:56:28;101307.94;;;37.66;41.43
18749;BME280;9503;53.560;10.246;2023-09-08T10:58:55;101299.41;;;36.76;42.27
18749;BME280;9503;53.560;10.246;2023-09-08T11:01:22;101300.44;;;35.65;43.48
18749;BME280;9503;53.560;10.246;2023-09-08T11:03:52;101295.28;;;36.88;42.85
18749;BME280;9503;53.560;10.246;2023-09-08T11:06:20;101301.94;;;37.94;41.78
18749;BME280;9503;53.560;10.246;2023-09-08T11:08:50;101294.63;;;36.65;43.24
18749;BME280;9503;53.560;10.246;2023-09-08T11:11:20;101302.78;;;37.63;41.32
18749;BME280;9503;53.560;10.246;2023-09-08T11:13:47;101293.19;;;37.10;41.63
18749;BME280;9503;53.560;10.246;2023-09-08T11:16:14;101295.41;;;37.35;42.03
18749;BME280;9503;53.560;10.246;2023-09-08T11:18:41;101296.47;;;37.64;41.58
18749;BME280;9503;53.560;10.246;2023-09-08T11:21:09;101294.84;;;37.61;41.38
18749;BME280;9503;53.560;10.246;2023-09-08T11:23:36;101291.94;;;38.43;40.54
18749;BME280;9503;53.560;10.246;2023-09-08T11:26:05;101284.88;;;38.27;40.64
18749;BME280;9503;53.560;10.246;2023-09-08T11:28:34;101284.75;;;38.74;40.46
18749;BME280;9503;53.560;10.246;2023-09-08T11:31:01;101285.66;;;39.32;39.05
18749;BME280;9503;53.560;10.246;2023-09-08T11:33:33;101287.06;;;38.94;38.95
18749;BME280;9503;53.560;10.246;2023-09-08T11:36:11;101287.81;;;38.22;39.36
18749;BME280;9503;53.560;10.246;2023-09-08T11:38:38;101279.22;;;38.61;39.60
18749;BME280;9503;53.560;10.246;2023-09-08T11:41:07;101275.09;;;38.86;39.04
18749;BME280;9503;53.560;10.246;2023-09-08T11:43:34;101278.69;;;38.70;38.81
18749;BME280;9503;53.560;10.246;2023-09-08T11:46:01;101279.28;;;38.76;39.11
18749;BME280;9503;53.560;10.246;2023-09-08T11:48:28;101277.09;;;38.52;39.06
18749;BME280;9503;53.560;10.246;2023-09-08T11:50:55;101272.81;;;37.23;40.89
18749;BME280;9503;53.560;10.246;2023-09-08T11:53:22;101276.88;;;37.95;39.97
18749;BME280;9503;53.560;10.246;2023-09-08T11:55:49;101273.38;;;38.55;39.53
18749;BME280;9503;53.560;10.246;2023-09-08T11:58:18;101272.28;;;38.73;38.52
18749;BME280;9503;53.560;10.246;2023-09-08T12:00:46;101276.03;;;38.85;38.41
18749;BME280;9503;53.560;10.246;2023-09-08T12:03:15;101278.56;;;39.16;37.82
18749;BME280;9503;53.560;10.246;2023-09-08T12:05:42;101273.25;;;39.29;38.02
18749;BME280;9503;53.560;10.246;2023-09-08T12:08:10;101272.56;;;40.22;38.13
18749;BME280;9503;53.560;10.246;2023-09-08T12:10:41;101265.66;;;39.91;37.33
18749;BME280;9503;53.560;10.246;2023-09-08T12:13:08;101268.09;;;39.26;37.89
18749;BME280;9503;53.560;10.246;2023-09-08T12:15:38;101278.91;;;39.53;38.16
18749;BME280;9503;53.560;10.246;2023-09-08T12:18:06;101268.78;;;38.57;39.13
18749;BME280;9503;53.560;10.246;2023-09-08T12:20:34;101266.38;;;39.25;38.63
18749;BME280;9503;53.560;10.246;2023-09-08T12:23:03;101271.94;;;38.49;39.76
18749;BME280;9503;53.560;10.246;2023-09-08T12:25:30;101268.22;;;38.66;39.58
18749;BME280;9503;53.560;10.246;2023-09-08T12:27:58;101266.97;;;39.16;39.24
18749;BME280;9503;53.560;10.246;2023-09-08T12:30:25;101265.97;;;38.74;38.51
18749;BME280;9503;53.560;10.246;2023-09-08T12:32:57;101251.94;;;38.69;38.50
18749;BME280;9503;53.560;10.246;2023-09-08T12:35:25;101253.47;;;39.59;38.84
18749;BME280;9503;53.560;10.246;2023-09-08T12:37:59;101244.09;;;38.66;38.88
18749;BME280;9503;53.560;10.246;2023-09-08T12:40:26;101248.09;;;39.17;38.47
18749;BME280;9503;53.560;10.246;2023-09-08T12:42:53;101250.81;;;39.86;38.20
18749;BME280;9503;53.560;10.246;2023-09-08T12:45:21;101242.59;;;40.01;37.10
18749;BME280;9503;53.560;10.246;2023-09-08T12:47:48;101238.09;;;40.42;37.24
18749;BME280;9503;53.560;10.246;2023-09-08T12:50:16;101231.94;;;40.27;36.71
18749;BME280;9503;53.560;10.246;2023-09-08T12:52:43;101241.66;;;40.80;36.56
18749;BME280;9503;53.560;10.246;2023-09-08T12:55:10;101238.00;;;40.81;36.06